createdAt,value
2022-10-18T00:00:24.410Z,61.66
2022-10-18T00:03:15.767Z,61.74
2022-10-18T00:05:47.739Z,61.66
2022-10-18T00:08:20.044Z,61.69
2022-10-18T00:10:51.837Z,61.63
2022-10-18T00:13:23.736Z,61.76
2022-10-18T00:15:59.396Z,61.71
2022-10-18T00:18:31.546Z,61.91
2022-10-18T00:21:06.445Z,61.82
2022-10-18T00:23:39.048Z,62.00
2022-10-18T00:26:12.861Z,62.12
2022-10-18T00:28:43.125Z,62.09
2022-10-18T00:31:21.008Z,62.21
2022-10-18T00:33:54.894Z,62.16
2022-10-18T00:36:28.123Z,62.23
2022-10-18T00:38:59.778Z,62.32
2022-10-18T00:41:33.987Z,62.27
2022-10-18T00:44:09.035Z,62.33
2022-10-18T00:46:42.027Z,62.40
2022-10-18T00:49:16.789Z,62.41
2022-10-18T00:51:51.077Z,62.41
2022-10-18T00:54:24.535Z,62.36
2022-10-18T00:56:56.590Z,62.34
2022-10-18T00:59:28.642Z,62.33
2022-10-18T01:02:00.299Z,62.50
2022-10-18T01:04:31.914Z,62.66
2022-10-18T01:07:11.734Z,62.46
2022-10-18T01:09:48.301Z,62.63
2022-10-18T01:12:29.250Z,62.72
2022-10-18T01:15:14.250Z,62.72
2022-10-18T01:17:53.274Z,62.96
2022-10-18T01:20:48.895Z,62.93
2022-10-18T01:23:31.182Z,63.10
2022-10-18T01:26:14.540Z,63.18
2022-10-18T01:28:58.455Z,63.19
2022-10-18T01:31:31.578Z,63.35
2022-10-18T01:34:06.322Z,63.41
2022-10-18T01:36:40.969Z,63.38
2022-10-18T01:39:17.293Z,63.37
2022-10-18T01:41:50.917Z,63.37
2022-10-18T01:44:25.611Z,63.37
2022-10-18T01:46:59.457Z,63.34
2022-10-18T01:49:30.793Z,63.32
2022-10-18T01:52:02.326Z,63.35
2022-10-18T01:54:37.470Z,63.32
2022-10-18T01:57:18.095Z,63.37
2022-10-18T01:59:59.376Z,63.43
2022-10-18T02:02:45.673Z,63.48
2022-10-18T02:05:25.488Z,63.53
2022-10-18T02:08:18.785Z,63.48
2022-10-18T02:10:58.312Z,63.54
2022-10-18T02:13:37.229Z,63.56
2022-10-18T02:16:11.929Z,63.43
2022-10-18T02:18:47.994Z,63.46
2022-10-18T02:21:22.453Z,63.50
2022-10-18T02:23:55.302Z,63.49
2022-10-18T02:26:27.074Z,63.54
2022-10-18T02:28:58.616Z,63.66
2022-10-18T02:31:33.031Z,63.70
2022-10-18T02:34:10.001Z,63.83
2022-10-18T02:36:46.479Z,63.94
2022-10-18T02:39:22.057Z,63.97
2022-10-18T02:41:54.353Z,64.05
2022-10-18T02:44:25.974Z,64.00
2022-10-18T02:46:58.035Z,64.15
2022-10-18T02:49:29.763Z,64.03
2022-10-18T02:52:01.179Z,64.03
2022-10-18T02:54:32.735Z,64.14
2022-10-18T02:57:04.066Z,64.18
2022-10-18T02:59:35.372Z,64.08
2022-10-18T03:02:06.804Z,64.13
2022-10-18T03:04:38.191Z,64.20
2022-10-18T03:07:09.504Z,64.26
2022-10-18T03:09:40.897Z,64.27
2022-10-18T03:12:12.389Z,64.32
2022-10-18T03:14:43.700Z,64.31
2022-10-18T03:17:14.986Z,64.34
2022-10-18T03:19:46.331Z,64.42
2022-10-18T03:22:17.702Z,64.53
2022-10-18T03:24:49.087Z,64.50
2022-10-18T03:27:20.457Z,64.49
2022-10-18T03:29:51.794Z,64.31
2022-10-18T03:32:23.105Z,64.31
2022-10-18T03:34:55.093Z,64.46
2022-10-18T03:37:26.383Z,64.55
2022-10-18T03:39:57.675Z,64.61
2022-10-18T03:42:29.120Z,64.52
2022-10-18T03:45:00.736Z,64.64
2022-10-18T03:47:32.096Z,64.56
2022-10-18T03:50:03.394Z,64.70
2022-10-18T03:52:34.830Z,64.74
2022-10-18T03:55:07.843Z,64.67
2022-10-18T03:57:39.161Z,64.66
2022-10-18T04:00:12.957Z,64.75
2022-10-18T04:02:44.413Z,64.77
2022-10-18T04:05:15.827Z,64.84
2022-10-18T04:07:47.629Z,64.84
2022-10-18T04:10:19.904Z,64.93
2022-10-18T04:12:51.259Z,64.96
2022-10-18T04:15:22.894Z,64.92
2022-10-18T04:17:54.180Z,64.94
2022-10-18T04:20:25.838Z,64.93
2022-10-18T04:22:57.817Z,64.97
2022-10-18T04:25:29.977Z,64.97
2022-10-18T04:28:01.341Z,65.01
2022-10-18T04:30:32.762Z,65.01
2022-10-18T04:33:04.105Z,64.98
2022-10-18T04:35:35.523Z,65.07
2022-10-18T04:38:06.849Z,65.06
2022-10-18T04:40:38.281Z,65.05
2022-10-18T04:43:09.619Z,65.10
2022-10-18T04:45:40.977Z,64.93
2022-10-18T04:48:12.331Z,65.01
2022-10-18T04:50:43.680Z,65.21
2022-10-18T04:53:14.987Z,65.25
2022-10-18T04:55:47.758Z,65.18
2022-10-18T04:58:19.572Z,65.26
2022-10-18T05:00:51.324Z,65.34
2022-10-18T05:03:22.666Z,65.46
2022-10-18T05:06:01.943Z,65.39
2022-10-18T05:08:36.535Z,65.51
2022-10-18T05:13:47.175Z,65.47
2022-10-18T05:16:21.427Z,65.51
2022-10-18T05:18:53.051Z,65.52
2022-10-18T05:21:24.455Z,65.45
2022-10-18T05:23:59.035Z,65.55
2022-10-18T05:26:30.569Z,65.63
2022-10-18T05:29:01.995Z,65.52
2022-10-18T05:31:33.636Z,65.58
2022-10-18T05:34:04.990Z,65.59
2022-10-18T05:36:36.369Z,65.65
2022-10-18T05:39:08.321Z,65.77
2022-10-18T05:41:40.004Z,65.92
2022-10-18T05:44:12.123Z,66.01
2022-10-18T05:46:43.926Z,66.13
2022-10-18T05:49:15.977Z,66.09
2022-10-18T05:51:47.309Z,66.09
2022-10-18T05:54:18.884Z,66.28
2022-10-18T05:56:50.349Z,66.20
2022-10-18T05:59:21.816Z,66.17
2022-10-18T06:01:53.176Z,66.16
2022-10-18T06:04:24.811Z,66.20
2022-10-18T06:06:56.570Z,66.19
2022-10-18T06:09:28.844Z,66.16
2022-10-18T06:12:00.205Z,66.25
2022-10-18T06:14:31.880Z,66.24
2022-10-18T06:17:03.202Z,66.19
2022-10-18T06:19:34.521Z,66.27
2022-10-18T06:22:05.896Z,66.21
2022-10-18T06:24:37.250Z,66.26
2022-10-18T06:27:09.646Z,66.28
2022-10-18T06:29:41.660Z,66.21
2022-10-18T06:32:13.146Z,66.21
2022-10-18T06:34:44.573Z,66.13
2022-10-18T06:37:16.315Z,66.14
2022-10-18T06:39:47.787Z,66.04
2022-10-18T06:42:21.891Z,65.98
2022-10-18T06:44:54.197Z,65.94
2022-10-18T06:47:25.551Z,65.89
2022-10-18T06:49:56.879Z,65.81
2022-10-18T06:52:28.273Z,65.75
2022-10-18T06:54:59.554Z,65.71
2022-10-18T06:57:31.777Z,65.67
2022-10-18T07:00:04.312Z,65.50
2022-10-18T07:02:35.663Z,65.49
2022-10-18T07:05:08.244Z,65.32
2022-10-18T07:07:39.722Z,65.10
2022-10-18T07:10:13.258Z,64.95
2022-10-18T07:12:44.743Z,64.85
2022-10-18T07:15:17.974Z,64.57
2022-10-18T07:17:49.516Z,64.51
2022-10-18T07:20:20.904Z,64.10
2022-10-18T07:22:56.715Z,64.03
2022-10-18T07:25:29.903Z,63.84
2022-10-18T07:28:02.091Z,63.90
2022-10-18T07:30:33.472Z,63.72
2022-10-18T07:33:04.786Z,63.00
2022-10-18T07:35:36.136Z,61.73
2022-10-18T07:38:07.526Z,60.87
2022-10-18T07:40:38.924Z,60.31
2022-10-18T07:43:12.184Z,59.75
2022-10-18T07:45:52.258Z,58.91
2022-10-18T07:48:23.726Z,57.73
2022-10-18T07:50:55.439Z,57.36
2022-10-18T07:53:27.165Z,56.39
2022-10-18T07:56:04.533Z,55.79
2022-10-18T07:58:38.762Z,54.87
2022-10-18T08:01:11.259Z,54.06
2022-10-18T08:03:43.671Z,53.02
2022-10-18T08:06:18.123Z,52.45
2022-10-18T08:08:50.156Z,51.63
2022-10-18T08:11:23.418Z,50.66
2022-10-18T08:13:55.135Z,48.83
2022-10-18T08:19:04.391Z,48.42
2022-10-18T08:21:35.777Z,47.60
2022-10-18T08:24:08.178Z,47.13
2022-10-18T08:26:39.591Z,45.75
2022-10-18T08:29:31.546Z,45.00
2022-10-18T08:32:03.392Z,43.87
2022-10-18T08:34:35.064Z,43.12
2022-10-18T08:37:06.592Z,43.01
2022-10-18T08:39:38.108Z,42.23
2022-10-18T08:42:34.499Z,41.49
2022-10-18T08:45:17.965Z,40.82
2022-10-18T08:48:00.087Z,39.64
2022-10-18T08:50:36.797Z,39.30
2022-10-18T08:53:18.855Z,38.52
2022-10-18T08:55:53.426Z,38.25
2022-10-18T08:58:26.776Z,37.39
2022-10-18T09:01:08.091Z,37.04
2022-10-18T09:04:07.638Z,35.95
2022-10-18T09:06:50.523Z,35.30
2022-10-18T09:09:35.364Z,34.39
2022-10-18T09:12:28.289Z,34.24
2022-10-18T09:15:17.620Z,33.48
2022-10-18T09:18:04.267Z,32.91
2022-10-18T09:20:42.134Z,32.34
2022-10-18T09:23:19.622Z,31.83
2022-10-18T09:25:55.574Z,31.16
2022-10-18T09:28:44.312Z,31.23
2022-10-18T09:31:22.557Z,30.66
2022-10-18T09:33:58.157Z,30.06
2022-10-18T09:36:35.721Z,29.75
2022-10-18T09:39:13.231Z,29.96
2022-10-18T09:41:50.009Z,29.93
2022-10-18T09:44:24.161Z,29.92
2022-10-18T09:47:00.818Z,30.18
2022-10-18T09:49:37.358Z,30.24
2022-10-18T09:52:20.800Z,30.37
2022-10-18T09:54:56.627Z,30.45
2022-10-18T09:57:33.864Z,30.15
2022-10-18T10:00:14.101Z,30.28
2022-10-18T10:02:45.732Z,30.41
2022-10-18T10:05:17.958Z,29.97
2022-10-18T10:07:50.672Z,30.11
2022-10-18T10:10:26.093Z,30.02
2022-10-18T10:13:08.406Z,29.62
2022-10-18T10:15:42.547Z,28.89
2022-10-18T10:18:22.591Z,28.36
2022-10-18T10:20:57.244Z,28.22
2022-10-18T10:23:31.545Z,28.29
2022-10-18T10:26:05.962Z,28.29
2022-10-18T10:28:43.718Z,27.77
2022-10-18T10:31:28.319Z,27.58
2022-10-18T10:34:05.122Z,27.20
2022-10-18T10:36:47.205Z,27.07
2022-10-18T10:39:20.226Z,26.57
2022-10-18T10:41:53.856Z,25.98
2022-10-18T10:44:27.897Z,25.76
2022-10-18T10:47:00.375Z,25.57
2022-10-18T10:49:44.662Z,25.43
2022-10-18T10:52:28.811Z,24.95
2022-10-18T10:55:30.427Z,24.88
2022-10-18T10:57:56.550Z,24.68
2022-10-18T11:00:43.823Z,24.40
2022-10-18T11:03:28.482Z,23.92
2022-10-18T11:06:01.965Z,23.84
2022-10-18T11:08:39.159Z,23.43
2022-10-18T11:11:22.867Z,23.47
2022-10-18T11:14:13.551Z,23.11
2022-10-18T11:16:57.450Z,22.75
2022-10-18T11:19:40.049Z,22.54
2022-10-18T11:22:18.433Z,22.44
2022-10-18T11:24:50.364Z,22.25
2022-10-18T11:27:28.566Z,22.16
2022-10-18T11:30:15.250Z,21.91
2022-10-18T11:32:58.620Z,21.80
2022-10-18T11:35:45.512Z,21.45
2022-10-18T11:38:28.519Z,21.46
2022-10-18T11:41:15.470Z,21.20
2022-10-18T11:44:02.654Z,21.21
2022-10-18T11:46:48.713Z,21.04
2022-10-18T11:49:33.925Z,21.08
2022-10-18T11:52:14.285Z,21.03
2022-10-18T11:54:58.362Z,21.08
2022-10-18T11:57:51.821Z,21.16
2022-10-18T12:03:22.652Z,21.03
2022-10-18T12:05:56.742Z,21.06
2022-10-18T12:08:34.945Z,21.07
2022-10-18T12:11:14.500Z,21.10
2022-10-18T12:13:51.342Z,20.95
2022-10-18T12:16:49.595Z,21.29
2022-10-18T12:19:25.418Z,21.04
2022-10-18T12:22:14.915Z,21.03
2022-10-18T12:24:46.269Z,21.12
2022-10-18T12:27:19.322Z,21.01
2022-10-18T12:29:52.678Z,21.01
2022-10-18T12:32:31.034Z,20.79
2022-10-18T12:35:07.835Z,20.55
2022-10-18T12:38:00.726Z,20.59
2022-10-18T12:40:39.639Z,20.45
2022-10-18T12:43:18.055Z,20.63
2022-10-18T12:45:55.690Z,20.70
2022-10-18T12:48:36.405Z,21.04
2022-10-18T12:51:15.402Z,21.25
2022-10-18T12:53:48.738Z,21.64
2022-10-18T12:56:44.065Z,21.70
2022-10-18T12:59:49.589Z,22.00
2022-10-18T13:02:29.876Z,22.30
2022-10-18T13:05:02.395Z,22.53
2022-10-18T13:07:43.218Z,22.75
2022-10-18T13:10:43.683Z,22.78
2022-10-18T13:13:42.182Z,23.13
2022-10-18T13:16:27.758Z,23.65
2022-10-18T13:19:03.678Z,23.85
2022-10-18T13:21:47.149Z,24.00
2022-10-18T13:24:35.070Z,24.36
2022-10-18T13:27:41.337Z,24.64
2022-10-18T13:30:35.158Z,25.00
2022-10-18T13:33:31.606Z,25.27
2022-10-18T13:36:08.286Z,25.61
2022-10-18T13:38:47.817Z,25.89
2022-10-18T13:41:21.978Z,26.19
2022-10-18T13:44:28.304Z,26.33
2022-10-18T13:47:15.745Z,26.68
2022-10-18T13:50:16.863Z,26.93
2022-10-18T13:53:27.244Z,27.11
2022-10-18T13:56:11.673Z,27.60
2022-10-18T13:59:13.483Z,27.69
2022-10-18T14:01:57.212Z,27.98
2022-10-18T14:05:17.018Z,28.33
2022-10-18T14:08:05.671Z,28.93
2022-10-18T14:11:01.742Z,29.00
2022-10-18T14:13:40.564Z,29.33
2022-10-18T14:16:28.878Z,29.35
2022-10-18T14:19:09.338Z,29.65
2022-10-18T14:21:48.806Z,29.75
2022-10-18T14:24:25.677Z,30.01
2022-10-18T14:27:20.111Z,30.14
2022-10-18T14:30:07.618Z,30.40
2022-10-18T14:32:43.651Z,30.71
2022-10-18T14:35:38.140Z,30.80
2022-10-18T14:38:16.342Z,31.07
2022-10-18T14:40:48.031Z,31.30
2022-10-18T14:43:21.908Z,31.62
2022-10-18T14:45:53.239Z,31.87
2022-10-18T14:48:25.213Z,31.98
2022-10-18T14:51:00.537Z,32.09
2022-10-18T14:53:38.516Z,32.38
2022-10-18T14:56:21.225Z,32.62
2022-10-18T14:58:53.874Z,32.72
2022-10-18T15:01:28.923Z,32.83
2022-10-18T15:04:06.067Z,33.01
2022-10-18T15:06:37.710Z,33.10
2022-10-18T15:09:11.100Z,33.14
2022-10-18T15:11:44.897Z,33.52
2022-10-18T15:14:19.961Z,33.67
2022-10-18T15:16:56.406Z,33.96
2022-10-18T15:19:33.871Z,33.93
2022-10-18T15:22:30.707Z,34.13
2022-10-18T15:25:16.749Z,34.63
2022-10-18T15:27:51.104Z,34.84
2022-10-18T15:30:28.139Z,34.75
2022-10-18T15:33:01.471Z,35.02
2022-10-18T15:35:35.047Z,35.10
2022-10-18T15:38:15.283Z,35.32
2022-10-18T15:40:46.670Z,35.42
2022-10-18T15:43:40.531Z,35.48
2022-10-18T15:46:33.020Z,35.74
2022-10-18T15:49:52.299Z,35.90
2022-10-18T15:52:41.414Z,36.12
2022-10-18T15:55:48.401Z,36.09
2022-10-18T15:58:29.072Z,36.57
2022-10-18T16:01:02.313Z,36.65
2022-10-18T16:03:36.039Z,36.67
2022-10-18T16:06:12.310Z,36.79
2022-10-18T16:08:50.323Z,37.03
2022-10-18T16:11:23.686Z,37.11
2022-10-18T16:13:56.607Z,37.24
2022-10-18T16:16:31.578Z,37.55
2022-10-18T16:19:03.492Z,37.47
2022-10-18T16:21:38.290Z,37.54
2022-10-18T16:24:10.653Z,37.65
2022-10-18T16:26:42.252Z,37.81
2022-10-18T16:29:16.691Z,37.99
2022-10-18T16:31:50.995Z,38.06
2022-10-18T16:34:22.549Z,38.20
2022-10-18T16:36:54.009Z,38.34
2022-10-18T16:39:25.966Z,38.45
2022-10-18T16:41:57.414Z,38.50
2022-10-18T16:44:28.973Z,38.71
2022-10-18T16:47:00.523Z,38.89
2022-10-18T16:49:32.195Z,38.94
2022-10-18T16:52:03.840Z,39.03
2022-10-18T16:54:35.908Z,39.33
2022-10-18T16:57:07.574Z,39.31
2022-10-18T16:59:40.273Z,39.37
2022-10-18T17:02:12.418Z,39.58
2022-10-18T17:04:43.877Z,39.62
2022-10-18T17:07:24.331Z,39.69
2022-10-18T17:09:56.029Z,40.05
2022-10-18T17:12:27.674Z,39.96
2022-10-18T17:14:59.097Z,40.04
2022-10-18T17:17:30.934Z,40.08
2022-10-18T17:20:04.896Z,40.21
2022-10-18T17:22:35.412Z,40.41
2022-10-18T17:25:07.986Z,40.56
2022-10-18T17:27:39.324Z,40.62
2022-10-18T17:30:14.621Z,40.73
2022-10-18T17:32:46.033Z,40.81
2022-10-18T17:35:17.681Z,40.93
2022-10-18T17:37:52.307Z,41.15
2022-10-18T17:40:24.332Z,41.19
2022-10-18T17:42:56.351Z,41.25
2022-10-18T17:45:27.997Z,41.31
2022-10-18T17:47:59.561Z,41.47
2022-10-18T17:50:31.115Z,41.58
2022-10-18T17:53:02.659Z,41.63
2022-10-18T17:55:35.136Z,41.86
2022-10-18T17:58:06.769Z,42.03
2022-10-18T18:00:38.452Z,42.20
2022-10-18T18:03:10.081Z,42.48
2022-10-18T18:05:41.517Z,42.63
2022-10-18T18:08:12.909Z,42.81
2022-10-18T18:10:44.735Z,42.87
2022-10-18T18:13:18.958Z,43.15
2022-10-18T18:15:51.265Z,43.26
2022-10-18T18:18:22.730Z,43.39
2022-10-18T18:20:55.369Z,43.73
2022-10-18T18:23:27.060Z,43.87
2022-10-18T18:26:00.049Z,44.17
2022-10-18T18:28:31.531Z,44.23
2022-10-18T18:31:05.821Z,44.34
2022-10-18T18:33:38.000Z,44.49
2022-10-18T18:36:10.577Z,44.65
2022-10-18T18:38:43.509Z,44.74
2022-10-18T18:41:17.064Z,44.94
2022-10-18T18:43:54.758Z,45.13
2022-10-18T18:46:28.265Z,45.39
2022-10-18T18:49:01.202Z,45.57
2022-10-18T18:51:33.318Z,45.67
2022-10-18T18:54:05.307Z,45.76
2022-10-18T18:56:36.735Z,45.97
2022-10-18T18:59:08.697Z,46.25
2022-10-18T19:01:41.010Z,46.59
2022-10-18T19:04:13.034Z,46.84
2022-10-18T19:06:46.429Z,47.05
2022-10-18T19:09:22.203Z,47.26
2022-10-18T19:11:55.486Z,47.60
2022-10-18T19:14:29.185Z,47.89
2022-10-18T19:17:01.748Z,48.16
2022-10-18T19:19:34.132Z,48.40
2022-10-18T19:22:08.554Z,48.84
2022-10-18T19:24:39.923Z,49.10
2022-10-18T19:27:13.073Z,49.27
2022-10-18T19:29:46.047Z,49.51
2022-10-18T19:32:18.963Z,49.78
2022-10-18T19:34:50.424Z,50.17
2022-10-18T19:37:21.811Z,50.28
2022-10-18T19:39:53.187Z,50.42
2022-10-18T19:42:31.763Z,50.70
2022-10-18T19:45:03.348Z,51.07
2022-10-18T19:47:34.932Z,51.09
2022-10-18T19:50:07.419Z,51.22
2022-10-18T19:52:38.813Z,51.35
2022-10-18T19:55:10.867Z,51.64
2022-10-18T19:57:42.195Z,51.81
2022-10-18T20:00:19.306Z,51.98
2022-10-18T20:02:50.941Z,52.21
2022-10-18T20:05:22.441Z,52.24
2022-10-18T20:07:53.899Z,52.54
2022-10-18T20:10:25.308Z,52.63
2022-10-18T20:12:56.590Z,52.74
2022-10-18T20:15:28.242Z,53.01
2022-10-18T20:17:59.597Z,53.18
2022-10-18T20:20:30.949Z,53.29
2022-10-18T20:23:02.266Z,53.48
2022-10-18T20:25:33.593Z,53.50
2022-10-18T20:28:05.840Z,53.53
2022-10-18T20:30:37.337Z,53.76
2022-10-18T20:33:08.647Z,53.83
2022-10-18T20:35:40.074Z,53.86
2022-10-18T20:38:11.453Z,54.17
2022-10-18T20:40:42.798Z,54.14
2022-10-18T20:43:15.156Z,54.21
2022-10-18T20:45:46.516Z,54.48
2022-10-18T20:48:17.921Z,54.56
2022-10-18T20:50:49.283Z,54.66
2022-10-18T20:53:22.225Z,54.88
2022-10-18T20:55:53.571Z,55.06
2022-10-18T20:58:24.867Z,55.07
2022-10-18T21:00:56.181Z,55.24
2022-10-18T21:03:27.748Z,55.29
2022-10-18T21:06:02.155Z,55.43
2022-10-18T21:08:33.463Z,55.52
2022-10-18T21:11:04.793Z,55.52
2022-10-18T21:13:36.608Z,55.69
2022-10-18T21:16:08.924Z,55.85
2022-10-18T21:18:41.160Z,55.88
2022-10-18T21:21:14.854Z,56.01
2022-10-18T21:23:45.183Z,56.18
2022-10-18T21:26:19.101Z,56.48
2022-10-18T21:28:52.144Z,56.41
2022-10-18T21:31:25.494Z,56.40
2022-10-18T21:33:58.187Z,56.64
2022-10-18T21:36:31.788Z,56.64
2022-10-18T21:39:03.517Z,56.77
2022-10-18T21:41:36.430Z,56.83
2022-10-18T21:44:10.751Z,57.00
2022-10-18T21:46:43.945Z,57.01
2022-10-18T21:49:16.628Z,57.11
2022-10-18T21:51:47.995Z,57.34
2022-10-18T21:54:19.931Z,57.38
2022-10-18T21:56:51.951Z,57.31
2022-10-18T21:59:23.618Z,57.52
2022-10-18T22:01:54.932Z,57.64
2022-10-18T22:04:27.340Z,57.74
2022-10-18T22:06:59.554Z,57.82
2022-10-18T22:09:31.203Z,57.88
2022-10-18T22:12:02.868Z,58.20
2022-10-18T22:14:34.314Z,58.27
2022-10-18T22:17:06.026Z,58.37
2022-10-18T22:19:37.326Z,58.38
2022-10-18T22:22:08.676Z,58.50
2022-10-18T22:24:40.480Z,58.63
2022-10-18T22:27:11.909Z,58.78
2022-10-18T22:29:43.517Z,58.65
2022-10-18T22:32:14.915Z,58.78
2022-10-18T22:34:46.979Z,58.80
2022-10-18T22:37:18.431Z,59.03
2022-10-18T22:39:49.766Z,59.16
2022-10-18T22:42:21.108Z,59.20
2022-10-18T22:44:52.481Z,59.31
2022-10-18T22:47:24.313Z,59.55
2022-10-18T22:49:55.653Z,59.60
2022-10-18T22:52:27.005Z,59.65
2022-10-18T22:54:58.315Z,59.78
2022-10-18T22:57:31.197Z,59.68
2022-10-18T23:00:02.874Z,59.94
2022-10-18T23:02:35.122Z,59.96
2022-10-18T23:05:08.159Z,59.97
2022-10-18T23:07:39.531Z,60.09
2022-10-18T23:10:11.504Z,60.05
2022-10-18T23:12:42.857Z,60.17
2022-10-18T23:15:14.504Z,60.11
2022-10-18T23:17:45.821Z,60.30
2022-10-18T23:20:17.551Z,60.42
2022-10-18T23:22:48.862Z,60.44
2022-10-18T23:25:20.789Z,60.62
2022-10-18T23:27:52.148Z,60.77
2022-10-18T23:30:23.479Z,60.75
2022-10-18T23:32:54.823Z,60.87
2022-10-18T23:35:26.325Z,60.88
2022-10-18T23:37:57.686Z,60.88
2022-10-18T23:40:29.026Z,60.92
2022-10-18T23:43:00.343Z,60.86
2022-10-18T23:45:31.632Z,60.88
2022-10-18T23:48:02.917Z,60.86
2022-10-18T23:50:34.386Z,61.05
2022-10-18T23:53:05.710Z,61.11
2022-10-18T23:55:37.024Z,61.20
2022-10-18T23:58:08.357Z,61.27
